sensor_id;sensor_type;location;lat;lon;timestamp;pressure;altitude;pressure_sealevel;temperature;humidity
59315;BME280;46521;50.160;20.802;2023-04-23T00:15:16;99338.52;;;10.88;44.72
59315;BME280;46521;50.160;20.802;2023-04-23T00:25:20;99324.83;;;10.84;44.93
59315;BME280;46521;50.160;20.802;2023-04-23T00:35:22;99328.84;;;10.57;45.71
59315;BME280;46521;50.160;20.802;2023-04-23T00:45:23;99323.27;;;10.20;46.83
59315;BME280;46521;50.160;20.802;2023-04-23T00:55:25;99330.70;;;9.77;46.98
59315;BME280;46521;50.160;20.802;2023-04-23T01:05:28;99320.94;;;9.30;47.72
59315;BME280;46521;50.160;20.802;2023-04-23T01:15:29;99331.52;;;8.80;48.28
59315;BME280;46521;50.160;20.802;2023-04-23T01:25:31;99333.77;;;8.42;48.78
59315;BME280;46521;50.160;20.802;2023-04-23T01:35:34;99333.14;;;8.48;49.75
59315;BME280;46521;50.160;20.802;2023-04-23T01:45:36;99327.88;;;8.48;49.45
59315;BME280;46521;50.160;20.802;2023-04-23T01:55:38;99317.95;;;8.42;50.01
59315;BME280;46521;50.160;20.802;2023-04-23T02:05:41;99325.72;;;8.44;50.39
59315;BME280;46521;50.160;20.802;2023-04-23T02:15:43;99322.56;;;8.40;50.98
59315;BME280;46521;50.160;20.802;2023-04-23T02:25:44;99325.53;;;8.37;51.48
59315;BME280;46521;50.160;20.802;2023-04-23T02:35:46;99317.41;;;8.22;51.53
59315;BME280;46521;50.160;20.802;2023-04-23T02:45:47;99326.95;;;8.15;51.58
59315;BME280;46521;50.160;20.802;2023-04-23T02:55:49;99331.48;;;7.88;51.87
59315;BME280;46521;50.160;20.802;2023-04-23T03:05:51;99330.83;;;7.60;52.96
59315;BME280;46521;50.160;20.802;2023-04-23T03:15:52;99333.08;;;7.47;52.65
59315;BME280;46521;50.160;20.802;2023-04-23T03:25:54;99331.02;;;7.32;53.13
59315;BME280;46521;50.160;20.802;2023-04-23T03:35:55;99320.12;;;7.27;52.93
59315;BME280;46521;50.160;20.802;2023-04-23T03:45:57;99329.78;;;7.18;53.71
59315;BME280;46521;50.160;20.802;2023-04-23T03:55:58;99333.61;;;7.24;53.84
59315;BME280;46521;50.160;20.802;2023-04-23T04:06:00;99342.94;;;7.00;54.44
59315;BME280;46521;50.160;20.802;2023-04-23T04:16:01;99337.06;;;6.80;54.26
59315;BME280;46521;50.160;20.802;2023-04-23T04:26:03;99341.82;;;7.03;54.75
59315;BME280;46521;50.160;20.802;2023-04-23T04:36:05;99341.85;;;7.29;55.34
59315;BME280;46521;50.160;20.802;2023-04-23T04:46:08;99341.04;;;7.63;55.36
59315;BME280;46521;50.160;20.802;2023-04-23T04:56:11;99349.29;;;8.54;55.63
59315;BME280;46521;50.160;20.802;2023-04-23T05:06:13;99344.02;;;9.28;55.19
59315;BME280;46521;50.160;20.802;2023-04-23T05:16:14;99342.81;;;10.03;54.62
59315;BME280;46521;50.160;20.802;2023-04-23T05:26:16;99351.17;;;10.77;53.58
59315;BME280;46521;50.160;20.802;2023-04-23T05:36:18;99348.70;;;11.52;54.65
59315;BME280;46521;50.160;20.802;2023-04-23T05:46:19;99349.70;;;12.11;52.71
59315;BME280;46521;50.160;20.802;2023-04-23T05:56:21;99358.13;;;12.51;52.69
59315;BME280;46521;50.160;20.802;2023-04-23T06:06:22;99359.83;;;13.02;52.59
59315;BME280;46521;50.160;20.802;2023-04-23T06:16:24;99348.45;;;13.64;52.08
59315;BME280;46521;50.160;20.802;2023-04-23T06:26:26;99354.84;;;14.18;52.00
59315;BME280;46521;50.160;20.802;2023-04-23T06:36:27;99358.92;;;14.63;51.88
59315;BME280;46521;50.160;20.802;2023-04-23T06:46:29;99346.86;;;15.20;51.67
59315;BME280;46521;50.160;20.802;2023-04-23T06:56:30;99338.00;;;15.80;50.70
59315;BME280;46521;50.160;20.802;2023-04-23T07:06:32;99341.73;;;16.56;49.49
59315;BME280;46521;50.160;20.802;2023-04-23T07:16:35;99335.11;;;16.97;49.37
59315;BME280;46521;50.160;20.802;2023-04-23T07:26:37;99336.44;;;17.75;48.49
59315;BME280;46521;50.160;20.802;2023-04-23T07:36:39;99336.61;;;17.99;48.22
59315;BME280;46521;50.160;20.802;2023-04-23T07:46:41;99330.68;;;18.88;46.92
59315;BME280;46521;50.160;20.802;2023-04-23T07:56:43;99321.39;;;19.38;47.02
59315;BME280;46521;50.160;20.802;2023-04-23T08:06:45;99316.23;;;19.60;45.87
59315;BME280;46521;50.160;20.802;2023-04-23T08:16:47;99304.88;;;19.93;45.31
59315;BME280;46521;50.160;20.802;2023-04-23T08:26:49;99306.43;;;20.18;44.69
59315;BME280;46521;50.160;20.802;2023-04-23T08:36:52;99300.94;;;20.87;43.61
59315;BME280;46521;50.160;20.802;2023-04-23T08:46:56;99297.13;;;21.56;43.18
59315;BME280;46521;50.160;20.802;2023-04-23T08:56:59;99279.66;;;22.03;42.18
59315;BME280;46521;50.160;20.802;2023-04-23T09:07:02;99267.52;;;22.88;41.80
59315;BME280;46521;50.160;20.802;2023-04-23T09:23:40;99258.14;;;23.38;40.17
59315;BME280;46521;50.160;20.802;2023-04-23T09:33:43;99262.90;;;23.79;39.61
59315;BME280;46521;50.160;20.802;2023-04-23T09:43:54;99241.11;;;23.90;38.61
59315;BME280;46521;50.160;20.802;2023-04-23T09:54:00;99242.78;;;24.22;38.13
59315;BME280;46521;50.160;20.802;2023-04-23T10:24:56;99196.85;;;24.17;36.82
59315;BME280;46521;50.160;20.802;2023-04-23T10:34:59;99189.55;;;24.23;35.80
59315;BME280;46521;50.160;20.802;2023-04-23T10:45:01;99179.54;;;24.39;34.97
59315;BME280;46521;50.160;20.802;2023-04-23T10:55:16;99174.96;;;24.65;34.36
59315;BME280;46521;50.160;20.802;2023-04-23T11:05:19;99162.45;;;24.95;33.31
59315;BME280;46521;50.160;20.802;2023-04-23T11:15:22;99157.91;;;24.80;33.83
59315;BME280;46521;50.160;20.802;2023-04-23T11:25:28;99164.69;;;24.26;33.13
59315;BME280;46521;50.160;20.802;2023-04-23T11:35:31;99141.43;;;23.84;32.79
59315;BME280;46521;50.160;20.802;2023-04-23T11:45:41;99140.65;;;24.19;32.71
59315;BME280;46521;50.160;20.802;2023-04-23T11:55:47;99137.94;;;24.35;32.22
59315;BME280;46521;50.160;20.802;2023-04-23T12:05:49;99124.96;;;24.47;32.30
59315;BME280;46521;50.160;20.802;2023-04-23T12:15:56;99122.81;;;24.18;31.84
59315;BME280;46521;50.160;20.802;2023-04-23T12:25:59;99113.03;;;23.76;31.70
59315;BME280;46521;50.160;20.802;2023-04-23T12:36:01;99093.66;;;23.84;32.20
59315;BME280;46521;50.160;20.802;2023-04-23T12:46:03;99084.97;;;23.77;31.98
59315;BME280;46521;50.160;20.802;2023-04-23T12:56:07;99068.80;;;23.98;32.23
59315;BME280;46521;50.160;20.802;2023-04-23T13:06:10;99055.98;;;23.11;31.74
59315;BME280;46521;50.160;20.802;2023-04-23T13:16:12;99043.64;;;22.62;31.40
59315;BME280;46521;50.160;20.802;2023-04-23T13:26:15;99027.34;;;22.41;31.02
59315;BME280;46521;50.160;20.802;2023-04-23T13:36:18;99020.47;;;22.18;31.42
59315;BME280;46521;50.160;20.802;2023-04-23T13:46:20;99006.24;;;22.28;30.96
59315;BME280;46521;50.160;20.802;2023-04-23T13:56:22;98990.02;;;22.65;30.80
59315;BME280;46521;50.160;20.802;2023-04-23T14:06:23;98975.23;;;22.83;30.55
59315;BME280;46521;50.160;20.802;2023-04-23T14:16:26;98972.04;;;22.92;30.32
59315;BME280;46521;50.160;20.802;2023-04-23T14:36:33;98945.88;;;22.92;29.80
59315;BME280;46521;50.160;20.802;2023-04-23T14:47:02;98948.80;;;22.80;29.54
59315;BME280;46521;50.160;20.802;2023-04-23T14:57:10;98944.73;;;22.67;29.47
59315;BME280;46521;50.160;20.802;2023-04-23T15:07:21;98946.48;;;22.31;29.27
59315;BME280;46521;50.160;20.802;2023-04-23T15:17:23;98935.00;;;22.03;29.32
59315;BME280;46521;50.160;20.802;2023-04-23T15:27:25;98940.63;;;21.96;29.52
59315;BME280;46521;50.160;20.802;2023-04-23T15:37:27;98931.41;;;21.87;29.76
59315;BME280;46521;50.160;20.802;2023-04-23T15:47:29;98924.84;;;21.68;29.97
59315;BME280;46521;50.160;20.802;2023-04-23T15:57:31;98914.34;;;21.34;30.07
59315;BME280;46521;50.160;20.802;2023-04-23T16:07:33;98918.13;;;21.05;30.97
59315;BME280;46521;50.160;20.802;2023-04-23T16:17:35;98910.05;;;20.78;31.64
59315;BME280;46521;50.160;20.802;2023-04-23T16:27:36;98902.20;;;20.49;31.95
59315;BME280;46521;50.160;20.802;2023-04-23T16:37:38;98898.73;;;20.27;32.38
59315;BME280;46521;50.160;20.802;2023-04-23T16:47:40;98897.95;;;20.09;32.58
59315;BME280;46521;50.160;20.802;2023-04-23T16:57:43;98885.41;;;19.93;32.94
59315;BME280;46521;50.160;20.802;2023-04-23T17:07:45;98881.28;;;19.68;33.33
59315;BME280;46521;50.160;20.802;2023-04-23T17:17:47;98877.75;;;19.45;33.81
59315;BME280;46521;50.160;20.802;2023-04-23T17:27:49;98874.17;;;19.23;34.03
